Hillsboro, WV (24946)

5:25 AM EDT on September 01, 2015 (GMT -0400)
Bunny's Holler Live Weather | | Change Station
CLOSE
Current Station
Personal Weather Station
Location: Auto, WV
Elevation: 2543 ft
Nearby Weather Stations

Elev 2543 ft 37.96 °N, 80.30 °W | Updated 2 seconds ago

Mostly Cloudy
Mostly Cloudy
60.6 °F
Feels Like 60.6 °F
N
0.0
Wind Variable Wind from NW
Gusts 0.0 mph

Today
High -- | Low -- °F
--% Chance of Precip.
Yesterday
High -- | Low -- °F
Precip. -- in
6:50 AM 7:50 PM
Waning Gibbous, 90% visible
Pressure 30.19 in
Visibility 0.2 miles
Clouds Overcast 100 ft
Dew Point 57 °F
Humidity 89%
Rainfall 0.00 in
Snow Depth Not available.
UV 0.0 out of 12
Pollen 9.40 out of 12
Air Quality Not available.
Flu Activity Not available.
METAR KLWB 010915Z AUTO 00000KT 1/4SM FG OVC001 17/16 A3019 RMK AO2 T01680160
Pressure 30.19 in
Visibility 0.2 miles
Clouds Overcast 100 ft
Dew Point 57 °F
Humidity 89%
Rainfall 0.00 in
Snow Depth Not available.
UV 0.0 out of 12
Pollen 9.40 out of 12
Air Quality Not available.
Flu Activity Not available.
METAR KLWB 010915Z AUTO 00000KT 1/4SM FG OVC001 17/16 A3019 RMK AO2 T01680160

10-Day Weather Forecast

×

Almanac

Astronomy

Sep. 01, 2015 Rise Set
Actual Time
Civil Twilight
Nautical Twilight
Astronomical Twilight
Moon
Length of Visible Light
Length of Day
Tomorrow will be .
, % of the Moon is Illuminated

Today's Extremes

State Highs State Lows

Community

WunderPhotos

Upload Photos

1,851,490 photos uploaded!

WunderBlogs® & News

Nearby

Air Quality

  Air Quality AQ Index Pollutant
Not available.

Snow Depth

Station Depth Elevation

Earthquake Activity

City Distance Mag. Time & Date
Minimum magnitude displayed is 2.5.

Coastal Water Temperatures

Place Temperature

Stations

Nearby Weather Stations

Station Location Temp. Windchill Dew Point Humidity Wind Precip. Elev Updated Type